PWSweather.com
Personal Weather Stations
Station Observations
MENWDWX1
Menstrie, ScotlandGB

MenstrieScotlandGB

Lat: 56.148322, Lon: -3.85483

Elevation: 62

Station Type: Davis Vantage Pro 2

Latest ConditionsUpdated 3:45:00 PM GMT Thursday, Nov 15, 2018
Currently Today's Max Today's Min Today's Average
Temperature 54.3°F12.4°C 57.2°F14.0°C 51.3°F10.7°C 54.0°F12.2°C
Dew Point 46.9°F8.3°C 48.3°F9.1°C 44.6°F7.0°C 46.6°F8.1°C
Winds 4.6 mph SSE7.4 kmh SSE 9.2 mph -14.8 kmh - - 3.8 mph 6.1 kmh
Wind Gusts 4.6 mph7.4 kmh 15.0 mph24.1 kmh - -
Humidity 76% 79% 65% 76%
Pressure 29.88 in1011.9 mb 29.93 in1013.5 mb 29.86 in1011.2 mb -
Hour Temp Dew Point Humidity Winds Wind Gusts Pressure Precip Precip Rate Daily Precip Total
03:45 PM 54.3°F12.4°C 46.9°F8.3°C 76% 4.6 mph SSE7.4 kmh SSE 4.6 mph7.4 kmh 29.88 in1011.9 mb - 0.00 in0.0 mm 0.00 in0.0 mm
03:40 PM 54.4°F12.4°C 47.0°F8.3°C 76% 4.6 mph SE7.4 kmh SE 3.5 mph5.6 kmh 29.88 in1011.9 mb - 0.00 in0.0 mm 0.00 in0.0 mm
03:35 PM 54.6°F12.6°C 46.8°F8.2°C 75% 4.6 mph SE7.4 kmh SE 6.9 mph11.1 kmh 29.88 in1011.9 mb - 0.00 in0.0 mm 0.00 in0.0 mm
03:30 PM 54.7°F12.6°C 46.9°F8.3°C 75% 4.6 mph ESE7.4 kmh ESE 6.9 mph11.1 kmh 29.87 in1011.5 mb - 0.00 in0.0 mm 0.00 in0.0 mm
03:25 PM 54.8°F12.7°C 46.7°F8.2°C 74% 4.6 mph SE7.4 kmh SE 8.1 mph13.0 kmh 29.88 in1011.9 mb - 0.00 in0.0 mm 0.00 in0.0 mm
03:20 PM 54.8°F12.7°C 46.3°F7.9°C 73% 2.3 mph SE3.7 kmh SE 3.5 mph5.6 kmh 29.88 in1011.9 mb - 0.00 in0.0 mm 0.00 in0.0 mm
03:15 PM 54.8°F12.7°C 46.7°F8.2°C 74% 4.6 mph SE7.4 kmh SE 8.1 mph13.0 kmh 29.88 in1011.9 mb - 0.00 in0.0 mm 0.00 in0.0 mm
03:10 PM 54.8°F12.7°C 46.3°F7.9°C 73% 5.8 mph SW9.3 kmh SW 9.2 mph14.8 kmh 29.88 in1011.9 mb - 0.00 in0.0 mm 0.00 in0.0 mm
03:05 PM 54.9°F12.7°C 46.4°F8.0°C 73% 2.3 mph SSW3.7 kmh SSW 6.9 mph11.1 kmh 29.88 in1011.9 mb - 0.00 in0.0 mm 0.00 in0.0 mm
03:00 PM 55.0°F12.8°C 45.8°F7.7°C 71% 2.3 mph SE3.7 kmh SE 3.5 mph5.6 kmh 29.88 in1011.9 mb - 0.00 in0.0 mm 0.00 in0.0 mm
02:55 PM 55.1°F12.8°C 45.9°F7.7°C 71% 4.6 mph E7.4 kmh E 5.8 mph9.3 kmh 29.88 in1011.9 mb - 0.00 in0.0 mm 0.00 in0.0 mm
02:50 PM 55.2°F12.9°C 45.6°F7.6°C 70% 2.3 mph SSE3.7 kmh SSE 3.5 mph5.6 kmh 29.89 in1012.2 mb - 0.00 in0.0 mm 0.00 in0.0 mm
02:45 PM 55.3°F12.9°C 45.3°F7.4°C 69% 1.2 mph SE1.9 kmh SE 3.5 mph5.6 kmh 29.89 in1012.2 mb - 0.00 in0.0 mm 0.00 in0.0 mm
02:40 PM 55.4°F13.0°C 45.4°F7.4°C 69% Calm Calm 3.5 mph5.6 kmh 29.89 in1012.2 mb - 0.00 in0.0 mm 0.00 in0.0 mm
02:35 PM 55.5°F13.1°C 45.1°F7.3°C 68% 2.3 mph E3.7 kmh E 3.5 mph5.6 kmh 29.89 in1012.2 mb - 0.00 in0.0 mm 0.00 in0.0 mm
02:30 PM 55.6°F13.1°C 45.2°F7.3°C 68% 2.3 mph E3.7 kmh E 3.5 mph5.6 kmh 29.89 in1012.2 mb - 0.00 in0.0 mm 0.00 in0.0 mm
02:25 PM 55.7°F13.2°C 45.3°F7.4°C 68% 2.3 mph E3.7 kmh E 3.5 mph5.6 kmh 29.89 in1012.2 mb - 0.00 in0.0 mm 0.00 in0.0 mm
02:20 PM 55.8°F13.2°C 45.0°F7.2°C 67% 1.2 mph SSE1.9 kmh SSE 3.5 mph5.6 kmh 29.90 in1012.5 mb - 0.00 in0.0 mm 0.00 in0.0 mm
02:15 PM 55.9°F13.3°C 45.1°F7.3°C 67% 3.5 mph SSE5.6 kmh SSE 4.6 mph7.4 kmh 29.90 in1012.5 mb - 0.00 in0.0 mm 0.00 in0.0 mm
02:10 PM 56.1°F13.4°C 44.9°F7.2°C 66% 5.8 mph S9.3 kmh S 9.2 mph14.8 kmh 29.90 in1012.5 mb - 0.00 in0.0 mm 0.00 in0.0 mm
02:05 PM 56.4°F13.6°C 45.2°F7.3°C 66% 4.6 mph SSE7.4 kmh SSE 6.9 mph11.1 kmh 29.90 in1012.5 mb - 0.00 in0.0 mm 0.00 in0.0 mm
02:00 PM 56.7°F13.7°C 45.1°F7.3°C 65% 5.8 mph S9.3 kmh S 9.2 mph14.8 kmh 29.90 in1012.5 mb - 0.00 in0.0 mm 0.00 in0.0 mm
01:55 PM 56.8°F13.8°C 45.6°F7.6°C 66% 5.8 mph S9.3 kmh S 9.2 mph14.8 kmh 29.90 in1012.5 mb - 0.00 in0.0 mm 0.00 in0.0 mm
01:50 PM 56.5°F13.6°C 44.9°F7.2°C 65% 6.9 mph S11.1 kmh S 9.2 mph14.8 kmh 29.90 in1012.5 mb - 0.00 in0.0 mm 0.00 in0.0 mm
01:45 PM 56.2°F13.4°C 44.6°F7.0°C 65% 8.1 mph S13.0 kmh S 10.4 mph16.7 kmh 29.90 in1012.5 mb - 0.00 in0.0 mm 0.00 in0.0 mm
01:40 PM 56.3°F13.5°C 44.7°F7.1°C 65% 5.8 mph S9.3 kmh S 11.5 mph18.5 kmh 29.90 in1012.5 mb - 0.00 in0.0 mm 0.00 in0.0 mm
01:35 PM 56.4°F13.6°C 44.8°F7.1°C 65% 5.8 mph SSE9.3 kmh SSE 6.9 mph11.1 kmh 29.90 in1012.5 mb - 0.00 in0.0 mm 0.00 in0.0 mm
01:30 PM 56.4°F13.6°C 45.2°F7.3°C 66% 4.6 mph SE7.4 kmh SE 9.2 mph14.8 kmh 29.89 in1012.2 mb - 0.00 in0.0 mm 0.00 in0.0 mm
01:25 PM 56.3°F13.5°C 45.5°F7.5°C 67% 5.8 mph SE9.3 kmh SE 9.2 mph14.8 kmh 29.89 in1012.2 mb - 0.00 in0.0 mm 0.00 in0.0 mm
01:20 PM 56.3°F13.5°C 45.5°F7.5°C 67% 8.1 mph SE13.0 kmh SE 11.5 mph18.5 kmh 29.89 in1012.2 mb - 0.00 in0.0 mm 0.00 in0.0 mm
01:15 PM 56.6°F13.7°C 46.2°F7.9°C 68% 3.5 mph SE5.6 kmh SE 3.5 mph5.6 kmh 29.89 in1012.2 mb - 0.00 in0.0 mm 0.00 in0.0 mm
01:10 PM 56.9°F13.8°C 46.1°F7.8°C 67% 5.8 mph SSE9.3 kmh SSE 6.9 mph11.1 kmh 29.89 in1012.2 mb - 0.00 in0.0 mm 0.00 in0.0 mm
01:05 PM 56.9°F13.8°C 46.1°F7.8°C 67% 4.6 mph SE7.4 kmh SE 8.1 mph13.0 kmh 29.89 in1012.2 mb - 0.00 in0.0 mm 0.00 in0.0 mm
01:00 PM 56.7°F13.7°C 46.6°F8.1°C 69% 4.6 mph SSE7.4 kmh SSE 9.2 mph14.8 kmh 29.89 in1012.2 mb - 0.00 in0.0 mm 0.00 in0.0 mm
12:55 PM 56.5°F13.6°C 46.4°F8.0°C 69% 3.5 mph SSE5.6 kmh SSE 5.8 mph9.3 kmh 29.89 in1012.2 mb - 0.00 in0.0 mm 0.00 in0.0 mm
12:50 PM 56.8°F13.8°C 45.9°F7.7°C 67% 5.8 mph S9.3 kmh S 6.9 mph11.1 kmh 29.88 in1011.9 mb - 0.00 in0.0 mm 0.00 in0.0 mm
12:45 PM 57.1°F13.9°C 46.6°F8.1°C 68% 5.8 mph SE9.3 kmh SE 10.4 mph16.7 kmh 29.88 in1011.9 mb - 0.00 in0.0 mm 0.00 in0.0 mm
12:40 PM 57.2°F14.0°C 46.7°F8.2°C 68% 4.6 mph SE7.4 kmh SE 6.9 mph11.1 kmh 29.88 in1011.9 mb - 0.00 in0.0 mm 0.00 in0.0 mm
12:35 PM 56.9°F13.8°C 46.8°F8.2°C 69% 4.6 mph S7.4 kmh S 5.8 mph9.3 kmh 29.88 in1011.9 mb - 0.00 in0.0 mm 0.00 in0.0 mm
12:30 PM 56.9°F13.8°C 46.8°F8.2°C 69% 8.1 mph SE13.0 kmh SE 12.7 mph20.4 kmh 29.89 in1012.2 mb - 0.00 in0.0 mm 0.00 in0.0 mm
12:25 PM 57.1°F13.9°C 48.2°F9.0°C 72% 6.9 mph SSE11.1 kmh SSE 10.4 mph16.7 kmh 29.89 in1012.2 mb - 0.00 in0.0 mm 0.00 in0.0 mm
12:20 PM 57.0°F13.9°C 47.7°F8.7°C 71% 4.6 mph SE7.4 kmh SE 8.1 mph13.0 kmh 29.89 in1012.2 mb - 0.00 in0.0 mm 0.00 in0.0 mm
12:15 PM 56.9°F13.8°C 48.0°F8.9°C 72% 3.5 mph SE5.6 kmh SE 5.8 mph9.3 kmh 29.89 in1012.2 mb - 0.00 in0.0 mm 0.00 in0.0 mm
12:10 PM 56.9°F13.8°C 48.3°F9.1°C 73% 4.6 mph SSE7.4 kmh SSE 6.9 mph11.1 kmh 29.89 in1012.2 mb - 0.00 in0.0 mm 0.00 in0.0 mm
12:05 PM 56.7°F13.7°C 48.1°F8.9°C 73% 3.5 mph SE5.6 kmh SE 6.9 mph11.1 kmh 29.89 in1012.2 mb - 0.00 in0.0 mm 0.00 in0.0 mm
12:00 PM 56.6°F13.7°C 48.0°F8.9°C 73% 3.5 mph SSE5.6 kmh SSE 9.2 mph14.8 kmh 29.89 in1012.2 mb - 0.00 in0.0 mm 0.00 in0.0 mm
11:55 AM 56.1°F13.4°C 48.0°F8.9°C 74% 3.5 mph SSE5.6 kmh SSE 3.5 mph5.6 kmh 29.89 in1012.2 mb - 0.00 in0.0 mm 0.00 in0.0 mm
11:50 AM 55.6°F13.1°C 47.8°F8.8°C 75% 4.6 mph SSE7.4 kmh SSE 6.9 mph11.1 kmh 29.89 in1012.2 mb - 0.00 in0.0 mm 0.00 in0.0 mm
11:45 AM 55.1°F12.8°C 47.3°F8.5°C 75% 4.6 mph SE7.4 kmh SE 8.1 mph13.0 kmh 29.90 in1012.5 mb - 0.00 in0.0 mm 0.00 in0.0 mm
11:40 AM 54.7°F12.6°C 47.3°F8.5°C 76% 5.8 mph SE9.3 kmh SE 6.9 mph11.1 kmh 29.89 in1012.2 mb - 0.00 in0.0 mm 0.00 in0.0 mm
11:35 AM 54.4°F12.4°C 47.0°F8.3°C 76% 6.9 mph SE11.1 kmh SE 10.4 mph16.7 kmh 29.89 in1012.2 mb - 0.00 in0.0 mm 0.00 in0.0 mm
11:30 AM 54.2°F12.3°C 46.8°F8.2°C 76% 8.1 mph SE13.0 kmh SE 13.8 mph22.2 kmh 29.90 in1012.5 mb - 0.00 in0.0 mm 0.00 in0.0 mm
11:25 AM 54.1°F12.3°C 47.0°F8.3°C 77% 6.9 mph SE11.1 kmh SE 10.4 mph16.7 kmh 29.90 in1012.5 mb - 0.00 in0.0 mm 0.00 in0.0 mm
11:20 AM 54.0°F12.2°C 46.6°F8.1°C 76% 4.6 mph SSE7.4 kmh SSE 8.1 mph13.0 kmh 29.90 in1012.5 mb - 0.00 in0.0 mm 0.00 in0.0 mm
11:15 AM 53.9°F12.2°C 46.9°F8.3°C 77% 3.5 mph SSE5.6 kmh SSE 8.1 mph13.0 kmh 29.90 in1012.5 mb - 0.00 in0.0 mm 0.00 in0.0 mm
11:10 AM 54.0°F12.2°C 46.6°F8.1°C 76% 6.9 mph S11.1 kmh S 11.5 mph18.5 kmh 29.90 in1012.5 mb - 0.00 in0.0 mm 0.00 in0.0 mm
11:05 AM 54.2°F12.3°C 46.8°F8.2°C 76% 6.9 mph S11.1 kmh S 11.5 mph18.5 kmh 29.90 in1012.5 mb - 0.00 in0.0 mm 0.00 in0.0 mm
11:00 AM 54.5°F12.5°C 46.7°F8.2°C 75% 5.8 mph S9.3 kmh S 10.4 mph16.7 kmh 29.90 in1012.5 mb - 0.00 in0.0 mm 0.00 in0.0 mm
10:55 AM 54.3°F12.4°C 46.5°F8.1°C 75% 9.2 mph SSE14.8 kmh SSE 11.5 mph18.5 kmh 29.90 in1012.5 mb - 0.00 in0.0 mm 0.00 in0.0 mm
10:50 AM 53.8°F12.1°C 46.1°F7.8°C 75% 6.9 mph SE11.1 kmh SE 9.2 mph14.8 kmh 29.90 in1012.5 mb - 0.00 in0.0 mm 0.00 in0.0 mm
10:45 AM 53.7°F12.1°C 46.3°F7.9°C 76% 5.8 mph SSE9.3 kmh SSE 9.2 mph14.8 kmh 29.90 in1012.5 mb - 0.00 in0.0 mm 0.00 in0.0 mm
10:40 AM 53.4°F11.9°C 46.0°F7.8°C 76% 4.6 mph SSE7.4 kmh SSE 8.1 mph13.0 kmh 29.90 in1012.5 mb - 0.00 in0.0 mm 0.00 in0.0 mm
10:35 AM 52.9°F11.6°C 45.9°F7.7°C 77% 6.9 mph SE11.1 kmh SE 12.7 mph20.4 kmh 29.90 in1012.5 mb - 0.00 in0.0 mm 0.00 in0.0 mm
10:30 AM 52.9°F11.6°C 45.9°F7.7°C 77% 3.5 mph SSE5.6 kmh SSE 3.5 mph5.6 kmh 29.90 in1012.5 mb - 0.00 in0.0 mm 0.00 in0.0 mm
10:25 AM 53.0°F11.7°C 45.6°F7.6°C 76% 4.6 mph SE7.4 kmh SE 6.9 mph11.1 kmh 29.90 in1012.5 mb - 0.00 in0.0 mm 0.00 in0.0 mm
10:20 AM 53.2°F11.8°C 45.8°F7.7°C 76% 6.9 mph SSE11.1 kmh SSE 8.1 mph13.0 kmh 29.91 in1012.9 mb - 0.00 in0.0 mm 0.00 in0.0 mm
10:15 AM 53.3°F11.8°C 45.9°F7.7°C 76% 6.9 mph SSE11.1 kmh SSE 15.0 mph24.1 kmh 29.91 in1012.9 mb - 0.00 in0.0 mm 0.00 in0.0 mm
10:10 AM 53.4°F11.9°C 46.4°F8.0°C 77% 6.9 mph SSE11.1 kmh SSE 11.5 mph18.5 kmh 29.91 in1012.9 mb - 0.00 in0.0 mm 0.00 in0.0 mm
10:05 AM 53.3°F11.8°C 46.2°F7.9°C 77% 5.8 mph SSE9.3 kmh SSE 6.9 mph11.1 kmh 29.91 in1012.9 mb - 0.00 in0.0 mm 0.00 in0.0 mm
10:00 AM 53.1°F11.7°C 46.1°F7.8°C 77% 5.8 mph S9.3 kmh S 10.4 mph16.7 kmh 29.91 in1012.9 mb - 0.00 in0.0 mm 0.00 in0.0 mm
09:55 AM 53.0°F11.7°C 46.0°F7.8°C 77% 5.8 mph SSE9.3 kmh SSE 8.1 mph13.0 kmh 29.91 in1012.9 mb - 0.00 in0.0 mm 0.00 in0.0 mm
09:50 AM 53.0°F11.7°C 46.3°F7.9°C 78% 5.8 mph SSE9.3 kmh SSE 9.2 mph14.8 kmh 29.92 in1013.2 mb - 0.00 in0.0 mm 0.00 in0.0 mm
09:45 AM 52.8°F11.6°C 46.1°F7.8°C 78% 5.8 mph SSE9.3 kmh SSE 9.2 mph14.8 kmh 29.92 in1013.2 mb - 0.00 in0.0 mm 0.00 in0.0 mm
09:40 AM 52.6°F11.4°C 45.9°F7.7°C 78% 5.8 mph SE9.3 kmh SE 15.0 mph24.1 kmh 29.92 in1013.2 mb - 0.00 in0.0 mm 0.00 in0.0 mm
09:35 AM 52.5°F11.4°C 45.8°F7.7°C 78% 5.8 mph SE9.3 kmh SE 10.4 mph16.7 kmh 29.92 in1013.2 mb - 0.00 in0.0 mm 0.00 in0.0 mm
09:30 AM 52.4°F11.3°C 46.1°F7.8°C 79% 4.6 mph SE7.4 kmh SE 4.6 mph7.4 kmh 29.92 in1013.2 mb - 0.00 in0.0 mm 0.00 in0.0 mm
09:25 AM 52.2°F11.2°C 45.9°F7.7°C 79% 2.3 mph SE3.7 kmh SE 4.6 mph7.4 kmh 29.92 in1013.2 mb - 0.00 in0.0 mm 0.00 in0.0 mm
09:20 AM 52.1°F11.2°C 45.8°F7.7°C 79% 8.1 mph SE13.0 kmh SE 11.5 mph18.5 kmh 29.93 in1013.5 mb - 0.00 in0.0 mm 0.00 in0.0 mm
09:15 AM 52.0°F11.1°C 45.7°F7.6°C 79% 2.3 mph SE3.7 kmh SE 11.5 mph18.5 kmh 29.93 in1013.5 mb - 0.00 in0.0 mm 0.00 in0.0 mm
09:10 AM 51.9°F11.1°C 45.6°F7.6°C 79% 2.3 mph SSE3.7 kmh SSE 6.9 mph11.1 kmh 29.93 in1013.5 mb - 0.00 in0.0 mm 0.00 in0.0 mm
09:05 AM 51.9°F11.1°C 45.6°F7.6°C 79% 3.5 mph ESE5.6 kmh ESE 3.5 mph5.6 kmh 29.93 in1013.5 mb - 0.00 in0.0 mm 0.00 in0.0 mm
09:00 AM 51.8°F11.0°C 45.5°F7.5°C 79% 1.2 mph SE1.9 kmh SE 2.3 mph3.7 kmh 29.93 in1013.5 mb - 0.00 in0.0 mm 0.00 in0.0 mm
08:55 AM 51.8°F11.0°C 45.5°F7.5°C 79% 3.5 mph ESE5.6 kmh ESE 3.5 mph5.6 kmh 29.93 in1013.5 mb - 0.00 in0.0 mm 0.00 in0.0 mm
08:50 AM 51.8°F11.0°C 45.5°F7.5°C 79% 3.5 mph ESE5.6 kmh ESE 4.6 mph7.4 kmh 29.93 in1013.5 mb - 0.00 in0.0 mm 0.00 in0.0 mm
08:45 AM 51.7°F10.9°C 45.4°F7.4°C 79% 2.3 mph E3.7 kmh E 3.5 mph5.6 kmh 29.92 in1013.2 mb - 0.00 in0.0 mm 0.00 in0.0 mm
08:40 AM 51.7°F10.9°C 45.4°F7.4°C 79% 1.2 mph SE1.9 kmh SE 3.5 mph5.6 kmh 29.92 in1013.2 mb - 0.00 in0.0 mm 0.00 in0.0 mm
08:35 AM 51.7°F10.9°C 45.4°F7.4°C 79% 3.5 mph SE5.6 kmh SE 3.5 mph5.6 kmh 29.92 in1013.2 mb - 0.00 in0.0 mm 0.00 in0.0 mm
08:30 AM 51.7°F10.9°C 45.4°F7.4°C 79% 2.3 mph E3.7 kmh E 6.9 mph11.1 kmh 29.92 in1013.2 mb - 0.00 in0.0 mm 0.00 in0.0 mm
08:25 AM 51.7°F10.9°C 45.4°F7.4°C 79% 2.3 mph E3.7 kmh E 3.5 mph5.6 kmh 29.92 in1013.2 mb - 0.00 in0.0 mm 0.00 in0.0 mm
08:20 AM 51.6°F10.9°C 45.3°F7.4°C 79% 3.5 mph E5.6 kmh E 4.6 mph7.4 kmh 29.92 in1013.2 mb - 0.00 in0.0 mm 0.00 in0.0 mm
08:15 AM 51.5°F10.8°C 45.2°F7.3°C 79% 5.8 mph E9.3 kmh E 5.8 mph9.3 kmh 29.92 in1013.2 mb - 0.00 in0.0 mm 0.00 in0.0 mm
08:10 AM 51.4°F10.8°C 45.1°F7.3°C 79% 4.6 mph E7.4 kmh E 9.2 mph14.8 kmh 29.92 in1013.2 mb - 0.00 in0.0 mm 0.00 in0.0 mm
08:05 AM 51.3°F10.7°C 45.0°F7.2°C 79% 2.3 mph E3.7 kmh E 8.1 mph13.0 kmh 29.92 in1013.2 mb - 0.00 in0.0 mm 0.00 in0.0 mm
08:00 AM 51.3°F10.7°C 45.0°F7.2°C 79% 3.5 mph ESE5.6 kmh ESE 3.5 mph5.6 kmh 29.92 in1013.2 mb - 0.00 in0.0 mm 0.00 in0.0 mm
07:55 AM 51.3°F10.7°C 45.0°F7.2°C 79% 1.2 mph E1.9 kmh E 3.5 mph5.6 kmh 29.92 in1013.2 mb - 0.00 in0.0 mm 0.00 in0.0 mm
07:50 AM 51.4°F10.8°C 45.1°F7.3°C 79% 3.5 mph SE5.6 kmh SE 3.5 mph5.6 kmh 29.92 in1013.2 mb - 0.00 in0.0 mm 0.00 in0.0 mm
07:45 AM 51.4°F10.8°C 45.1°F7.3°C 79% 2.3 mph SE3.7 kmh SE 4.6 mph7.4 kmh 29.92 in1013.2 mb - 0.00 in0.0 mm 0.00 in0.0 mm
07:40 AM 51.5°F10.8°C 45.2°F7.3°C 79% 2.3 mph SE3.7 kmh SE 3.5 mph5.6 kmh 29.92 in1013.2 mb - 0.00 in0.0 mm 0.00 in0.0 mm
07:35 AM 51.5°F10.8°C 45.2°F7.3°C 79% 2.3 mph SE3.7 kmh SE 3.5 mph5.6 kmh 29.92 in1013.2 mb - 0.00 in0.0 mm 0.00 in0.0 mm
07:30 AM 51.6°F10.9°C 45.3°F7.4°C 79% 2.3 mph SE3.7 kmh SE 3.5 mph5.6 kmh 29.91 in1012.9 mb - 0.00 in0.0 mm 0.00 in0.0 mm
07:25 AM 51.7°F10.9°C 45.4°F7.4°C 79% 2.3 mph SE3.7 kmh SE 3.5 mph5.6 kmh 29.91 in1012.9 mb - 0.00 in0.0 mm 0.00 in0.0 mm
07:20 AM 51.7°F10.9°C 45.4°F7.4°C 79% 5.8 mph E9.3 kmh E 8.1 mph13.0 kmh 29.91 in1012.9 mb - 0.00 in0.0 mm 0.00 in0.0 mm
07:15 AM 51.7°F10.9°C 45.4°F7.4°C 79% 2.3 mph E3.7 kmh E 3.5 mph5.6 kmh 29.91 in1012.9 mb - 0.00 in0.0 mm 0.00 in0.0 mm
07:10 AM 51.8°F11.0°C 45.5°F7.5°C 79% 1.2 mph SE1.9 kmh SE 4.6 mph7.4 kmh 29.90 in1012.5 mb - 0.00 in0.0 mm 0.00 in0.0 mm
07:05 AM 51.9°F11.1°C 45.6°F7.6°C 79% 2.3 mph SE3.7 kmh SE 6.9 mph11.1 kmh 29.90 in1012.5 mb - 0.00 in0.0 mm 0.00 in0.0 mm
07:00 AM 52.0°F11.1°C 45.7°F7.6°C 79% 2.3 mph SE3.7 kmh SE 3.5 mph5.6 kmh 29.90 in1012.5 mb - 0.00 in0.0 mm 0.00 in0.0 mm
06:55 AM 52.1°F11.2°C 45.8°F7.7°C 79% 1.2 mph SSE1.9 kmh SSE 3.5 mph5.6 kmh 29.90 in1012.5 mb - 0.00 in0.0 mm 0.00 in0.0 mm
06:50 AM 52.2°F11.2°C 45.9°F7.7°C 79% 4.6 mph SE7.4 kmh SE 4.6 mph7.4 kmh 29.89 in1012.2 mb - 0.00 in0.0 mm 0.00 in0.0 mm
06:45 AM 52.3°F11.3°C 46.0°F7.8°C 79% 3.5 mph SSE5.6 kmh SSE 4.6 mph7.4 kmh 29.89 in1012.2 mb - 0.00 in0.0 mm 0.00 in0.0 mm
06:40 AM 52.5°F11.4°C 46.1°F7.8°C 79% 2.3 mph SE3.7 kmh SE 3.5 mph5.6 kmh 29.89 in1012.2 mb - 0.00 in0.0 mm 0.00 in0.0 mm
06:35 AM 52.6°F11.4°C 46.3°F7.9°C 79% 3.5 mph SE5.6 kmh SE 6.9 mph11.1 kmh 29.89 in1012.2 mb - 0.00 in0.0 mm 0.00 in0.0 mm
06:30 AM 52.6°F11.4°C 46.3°F7.9°C 79% 2.3 mph ESE3.7 kmh ESE 3.5 mph5.6 kmh 29.89 in1012.2 mb - 0.00 in0.0 mm 0.00 in0.0 mm
06:25 AM 52.7°F11.5°C 46.4°F8.0°C 79% 2.3 mph ESE3.7 kmh ESE 3.5 mph5.6 kmh 29.89 in1012.2 mb - 0.00 in0.0 mm 0.00 in0.0 mm
06:20 AM 52.8°F11.6°C 46.5°F8.1°C 79% 1.2 mph SE1.9 kmh SE 2.3 mph3.7 kmh 29.90 in1012.5 mb - 0.00 in0.0 mm 0.00 in0.0 mm
06:15 AM 52.8°F11.6°C 46.5°F8.1°C 79% 3.5 mph SE5.6 kmh SE 3.5 mph5.6 kmh 29.90 in1012.5 mb - 0.00 in0.0 mm 0.00 in0.0 mm
06:10 AM 52.9°F11.6°C 46.6°F8.1°C 79% 2.3 mph E3.7 kmh E 3.5 mph5.6 kmh 29.89 in1012.2 mb - 0.00 in0.0 mm 0.00 in0.0 mm
06:05 AM 53.0°F11.7°C 46.7°F8.2°C 79% 1.2 mph ESE1.9 kmh ESE 3.5 mph5.6 kmh 29.89 in1012.2 mb - 0.00 in0.0 mm 0.00 in0.0 mm
06:00 AM 53.0°F11.7°C 46.7°F8.2°C 79% 5.8 mph ESE9.3 kmh ESE 6.9 mph11.1 kmh 29.89 in1012.2 mb - 0.00 in0.0 mm 0.00 in0.0 mm
05:55 AM 53.1°F11.7°C 46.8°F8.2°C 79% 4.6 mph E7.4 kmh E 6.9 mph11.1 kmh 29.89 in1012.2 mb - 0.00 in0.0 mm 0.00 in0.0 mm
05:50 AM 53.2°F11.8°C 46.9°F8.3°C 79% 3.5 mph SE5.6 kmh SE 5.8 mph9.3 kmh 29.89 in1012.2 mb - 0.00 in0.0 mm 0.00 in0.0 mm
05:45 AM 53.3°F11.8°C 46.9°F8.3°C 79% 8.1 mph E13.0 kmh E 9.2 mph14.8 kmh 29.89 in1012.2 mb - 0.00 in0.0 mm 0.00 in0.0 mm
05:40 AM 53.3°F11.8°C 47.0°F8.3°C 79% 4.6 mph E7.4 kmh E 6.9 mph11.1 kmh 29.89 in1012.2 mb - 0.00 in0.0 mm 0.00 in0.0 mm
05:35 AM 53.3°F11.8°C 47.0°F8.3°C 79% 4.6 mph ENE7.4 kmh ENE 4.6 mph7.4 kmh 29.89 in1012.2 mb - 0.00 in0.0 mm 0.00 in0.0 mm
05:30 AM 53.4°F11.9°C 47.0°F8.3°C 79% 2.3 mph E3.7 kmh E 5.8 mph9.3 kmh 29.89 in1012.2 mb - 0.00 in0.0 mm 0.00 in0.0 mm
05:25 AM 53.5°F11.9°C 47.1°F8.4°C 79% 4.6 mph E7.4 kmh E 8.1 mph13.0 kmh 29.88 in1011.9 mb - 0.00 in0.0 mm 0.00 in0.0 mm
05:20 AM 53.5°F11.9°C 47.1°F8.4°C 79% 5.8 mph E9.3 kmh E 9.2 mph14.8 kmh 29.89 in1012.2 mb - 0.00 in0.0 mm 0.00 in0.0 mm
05:15 AM 53.5°F11.9°C 47.1°F8.4°C 79% 5.8 mph E9.3 kmh E 6.9 mph11.1 kmh 29.88 in1011.9 mb - 0.00 in0.0 mm 0.00 in0.0 mm
05:10 AM 53.5°F11.9°C 47.1°F8.4°C 79% 2.3 mph E3.7 kmh E 3.5 mph5.6 kmh 29.88 in1011.9 mb - 0.00 in0.0 mm 0.00 in0.0 mm
05:05 AM 53.5°F11.9°C 47.1°F8.4°C 79% 2.3 mph E3.7 kmh E 5.8 mph9.3 kmh 29.88 in1011.9 mb - 0.00 in0.0 mm 0.00 in0.0 mm
05:00 AM 53.5°F11.9°C 47.1°F8.4°C 79% 4.6 mph ESE7.4 kmh ESE 8.1 mph13.0 kmh 29.88 in1011.9 mb - 0.00 in0.0 mm 0.00 in0.0 mm
04:55 AM 53.5°F11.9°C 47.1°F8.4°C 79% 3.5 mph E5.6 kmh E 6.9 mph11.1 kmh 29.88 in1011.9 mb - 0.00 in0.0 mm 0.00 in0.0 mm
04:50 AM 53.5°F11.9°C 47.1°F8.4°C 79% 2.3 mph NNE3.7 kmh NNE 2.3 mph3.7 kmh 29.88 in1011.9 mb - 0.00 in0.0 mm 0.00 in0.0 mm
04:45 AM 53.6°F12.0°C 47.2°F8.4°C 79% 1.2 mph NNE1.9 kmh NNE 2.3 mph3.7 kmh 29.88 in1011.9 mb - 0.00 in0.0 mm 0.00 in0.0 mm
04:40 AM 53.7°F12.1°C 47.3°F8.5°C 79% Calm Calm 1.2 mph1.9 kmh 29.88 in1011.9 mb - 0.00 in0.0 mm 0.00 in0.0 mm
04:35 AM 53.7°F12.1°C 47.3°F8.5°C 79% 2.3 mph NNE3.7 kmh NNE 3.5 mph5.6 kmh 29.88 in1011.9 mb - 0.00 in0.0 mm 0.00 in0.0 mm
04:30 AM 53.7°F12.1°C 47.3°F8.5°C 79% 2.3 mph ENE3.7 kmh ENE 3.5 mph5.6 kmh 29.88 in1011.9 mb - 0.00 in0.0 mm 0.00 in0.0 mm
04:25 AM 53.7°F12.1°C 47.3°F8.5°C 79% 3.5 mph E5.6 kmh E 4.6 mph7.4 kmh 29.88 in1011.9 mb - 0.00 in0.0 mm 0.00 in0.0 mm
04:20 AM 53.8°F12.1°C 47.4°F8.6°C 79% 1.2 mph S1.9 kmh S 1.2 mph1.9 kmh 29.88 in1011.9 mb - 0.00 in0.0 mm 0.00 in0.0 mm
04:15 AM 53.8°F12.1°C 47.4°F8.6°C 79% 2.3 mph SE3.7 kmh SE 2.3 mph3.7 kmh 29.88 in1011.9 mb - 0.00 in0.0 mm 0.00 in0.0 mm
04:10 AM 53.9°F12.2°C 47.5°F8.6°C 79% 3.5 mph ENE5.6 kmh ENE 3.5 mph5.6 kmh 29.88 in1011.9 mb - 0.00 in0.0 mm 0.00 in0.0 mm
04:05 AM 53.9°F12.2°C 47.5°F8.6°C 79% 4.6 mph ESE7.4 kmh ESE 6.9 mph11.1 kmh 29.87 in1011.5 mb - 0.00 in0.0 mm 0.00 in0.0 mm
04:00 AM 54.0°F12.2°C 47.6°F8.7°C 79% 3.5 mph ESE5.6 kmh ESE 6.9 mph11.1 kmh 29.88 in1011.9 mb - 0.00 in0.0 mm 0.00 in0.0 mm
03:55 AM 54.1°F12.3°C 47.7°F8.7°C 79% 2.3 mph SSW3.7 kmh SSW 2.3 mph3.7 kmh 29.88 in1011.9 mb - 0.00 in0.0 mm 0.00 in0.0 mm
03:50 AM 54.1°F12.3°C 47.7°F8.7°C 79% 3.5 mph S5.6 kmh S 3.5 mph5.6 kmh 29.88 in1011.9 mb - 0.00 in0.0 mm 0.00 in0.0 mm
03:45 AM 54.1°F12.3°C 47.7°F8.7°C 79% 1.2 mph SW1.9 kmh SW 2.3 mph3.7 kmh 29.88 in1011.9 mb - 0.00 in0.0 mm 0.00 in0.0 mm
03:40 AM 54.1°F12.3°C 47.7°F8.7°C 79% 3.5 mph SSW5.6 kmh SSW 5.8 mph9.3 kmh 29.88 in1011.9 mb - 0.00 in0.0 mm 0.00 in0.0 mm
03:35 AM 54.1°F12.3°C 47.7°F8.7°C 79% 2.3 mph SSW3.7 kmh SSW 5.8 mph9.3 kmh 29.88 in1011.9 mb - 0.00 in0.0 mm 0.00 in0.0 mm
03:30 AM 54.1°F12.3°C 47.7°F8.7°C 79% 1.2 mph SSW1.9 kmh SSW 3.5 mph5.6 kmh 29.88 in1011.9 mb - 0.00 in0.0 mm 0.00 in0.0 mm
03:25 AM 54.1°F12.3°C 47.7°F8.7°C 79% 2.3 mph S3.7 kmh S 5.8 mph9.3 kmh 29.87 in1011.5 mb - 0.00 in0.0 mm 0.00 in0.0 mm
03:20 AM 54.1°F12.3°C 47.7°F8.7°C 79% 5.8 mph S9.3 kmh S 6.9 mph11.1 kmh 29.87 in1011.5 mb - 0.00 in0.0 mm 0.00 in0.0 mm
03:15 AM 54.1°F12.3°C 47.7°F8.7°C 79% 4.6 mph S7.4 kmh S 5.8 mph9.3 kmh 29.87 in1011.5 mb - 0.00 in0.0 mm 0.00 in0.0 mm
03:10 AM 53.9°F12.2°C 47.6°F8.7°C 79% 4.6 mph SSW7.4 kmh SSW 6.9 mph11.1 kmh 29.88 in1011.9 mb - 0.00 in0.0 mm 0.00 in0.0 mm
03:05 AM 53.9°F12.2°C 47.5°F8.6°C 79% 3.5 mph SSW5.6 kmh SSW 4.6 mph7.4 kmh 29.88 in1011.9 mb - 0.00 in0.0 mm 0.00 in0.0 mm
03:00 AM 53.9°F12.2°C 47.5°F8.6°C 79% 3.5 mph SSW5.6 kmh SSW 4.6 mph7.4 kmh 29.88 in1011.9 mb - 0.00 in0.0 mm 0.00 in0.0 mm
02:55 AM 53.8°F12.1°C 47.4°F8.6°C 79% 3.5 mph SW5.6 kmh SW 8.1 mph13.0 kmh 29.88 in1011.9 mb - 0.00 in0.0 mm 0.00 in0.0 mm
02:50 AM 53.8°F12.1°C 47.4°F8.6°C 79% 1.2 mph SW1.9 kmh SW 2.3 mph3.7 kmh 29.88 in1011.9 mb - 0.00 in0.0 mm 0.00 in0.0 mm
02:45 AM 53.8°F12.1°C 47.4°F8.6°C 79% 2.3 mph SW3.7 kmh SW 3.5 mph5.6 kmh 29.88 in1011.9 mb - 0.00 in0.0 mm 0.00 in0.0 mm
02:40 AM 53.8°F12.1°C 47.4°F8.6°C 79% 1.2 mph SW1.9 kmh SW 11.5 mph18.5 kmh 29.87 in1011.5 mb - 0.00 in0.0 mm 0.00 in0.0 mm
02:35 AM 53.9°F12.2°C 47.5°F8.6°C 79% 1.2 mph SE1.9 kmh SE 2.3 mph3.7 kmh 29.88 in1011.9 mb - 0.00 in0.0 mm 0.00 in0.0 mm
02:30 AM 53.9°F12.2°C 47.5°F8.6°C 79% 1.2 mph SE1.9 kmh SE 2.3 mph3.7 kmh 29.88 in1011.9 mb - 0.00 in0.0 mm 0.00 in0.0 mm
02:25 AM 54.0°F12.2°C 47.6°F8.7°C 79% Calm Calm -- 29.88 in1011.9 mb - 0.00 in0.0 mm 0.00 in0.0 mm
02:20 AM 54.0°F12.2°C 47.7°F8.7°C 79% 1.2 mph SE1.9 kmh SE 2.3 mph3.7 kmh 29.87 in1011.5 mb - 0.00 in0.0 mm 0.00 in0.0 mm
02:15 AM 54.1°F12.3°C 47.7°F8.7°C 79% 1.2 mph SE1.9 kmh SE 3.5 mph5.6 kmh 29.87 in1011.5 mb - 0.00 in0.0 mm 0.00 in0.0 mm
02:10 AM 54.1°F12.3°C 47.7°F8.7°C 79% 2.3 mph SE3.7 kmh SE 4.6 mph7.4 kmh 29.87 in1011.5 mb - 0.00 in0.0 mm 0.00 in0.0 mm
02:05 AM 54.1°F12.3°C 47.8°F8.8°C 79% 3.5 mph SE5.6 kmh SE 4.6 mph7.4 kmh 29.87 in1011.5 mb - 0.00 in0.0 mm 0.00 in0.0 mm
02:00 AM 54.2°F12.3°C 47.8°F8.8°C 79% 1.2 mph S1.9 kmh S 3.5 mph5.6 kmh 29.87 in1011.5 mb - 0.00 in0.0 mm 0.00 in0.0 mm
01:55 AM 54.2°F12.3°C 47.8°F8.8°C 79% 3.5 mph S5.6 kmh S 5.8 mph9.3 kmh 29.87 in1011.5 mb - 0.00 in0.0 mm 0.00 in0.0 mm
01:50 AM 54.3°F12.4°C 47.9°F8.8°C 79% 1.2 mph S1.9 kmh S 2.3 mph3.7 kmh 29.87 in1011.5 mb - 0.00 in0.0 mm 0.00 in0.0 mm
01:45 AM 54.3°F12.4°C 47.9°F8.8°C 79% 3.5 mph SSW5.6 kmh SSW 5.8 mph9.3 kmh 29.87 in1011.5 mb - 0.00 in0.0 mm 0.00 in0.0 mm
01:40 AM 54.4°F12.4°C 48.0°F8.9°C 79% 1.2 mph SW1.9 kmh SW 3.5 mph5.6 kmh 29.87 in1011.5 mb - 0.00 in0.0 mm 0.00 in0.0 mm
01:35 AM 54.4°F12.4°C 48.0°F8.9°C 79% 4.6 mph SSW7.4 kmh SSW 5.8 mph9.3 kmh 29.87 in1011.5 mb - 0.00 in0.0 mm 0.00 in0.0 mm
01:30 AM 54.4°F12.4°C 48.0°F8.9°C 79% 2.3 mph SSE3.7 kmh SSE 4.6 mph7.4 kmh 29.87 in1011.5 mb - 0.00 in0.0 mm 0.00 in0.0 mm
01:25 AM 54.5°F12.5°C 48.1°F8.9°C 79% 3.5 mph SW5.6 kmh SW 4.6 mph7.4 kmh 29.87 in1011.5 mb - 0.00 in0.0 mm 0.00 in0.0 mm
01:20 AM 54.5°F12.5°C 48.1°F8.9°C 79% 3.5 mph S5.6 kmh S 5.8 mph9.3 kmh 29.87 in1011.5 mb - 0.00 in0.0 mm 0.00 in0.0 mm
01:15 AM 54.6°F12.6°C 48.2°F9.0°C 79% Calm Calm 2.3 mph3.7 kmh 29.87 in1011.5 mb - 0.00 in0.0 mm 0.00 in0.0 mm
01:10 AM 54.6°F12.6°C 48.2°F9.0°C 79% 2.3 mph S3.7 kmh S 3.5 mph5.6 kmh 29.87 in1011.5 mb - 0.00 in0.0 mm 0.00 in0.0 mm
01:05 AM 54.6°F12.6°C 48.2°F9.0°C 79% 2.3 mph ESE3.7 kmh ESE 3.5 mph5.6 kmh 29.87 in1011.5 mb - 0.00 in0.0 mm 0.00 in0.0 mm
01:00 AM 54.5°F12.5°C 48.1°F8.9°C 79% 1.2 mph SW1.9 kmh SW 1.2 mph1.9 kmh 29.87 in1011.5 mb - 0.00 in0.0 mm 0.00 in0.0 mm
12:55 AM 54.6°F12.6°C 48.2°F9.0°C 79% 2.3 mph W3.7 kmh W 6.9 mph11.1 kmh 29.86 in1011.2 mb - 0.00 in0.0 mm 0.00 in0.0 mm
12:50 AM 54.6°F12.6°C 48.2°F9.0°C 79% 3.5 mph WSW5.6 kmh WSW 8.1 mph13.0 kmh 29.86 in1011.2 mb - 0.00 in0.0 mm 0.00 in0.0 mm
12:45 AM 54.6°F12.6°C 48.2°F9.0°C 79% 5.8 mph SW9.3 kmh SW 11.5 mph18.5 kmh 29.86 in1011.2 mb - 0.00 in0.0 mm 0.00 in0.0 mm
12:40 AM 54.5°F12.5°C 48.1°F8.9°C 79% 4.6 mph SW7.4 kmh SW 10.4 mph16.7 kmh 29.86 in1011.2 mb - 0.00 in0.0 mm 0.00 in0.0 mm
12:35 AM 54.5°F12.5°C 48.1°F8.9°C 79% 3.5 mph SW5.6 kmh SW 4.6 mph7.4 kmh 29.86 in1011.2 mb - 0.00 in0.0 mm 0.00 in0.0 mm
12:30 AM 54.5°F12.5°C 48.1°F8.9°C 79% 3.5 mph SW5.6 kmh SW 6.9 mph11.1 kmh 29.86 in1011.2 mb - 0.00 in0.0 mm 0.00 in0.0 mm
12:25 AM 54.5°F12.5°C 48.1°F8.9°C 79% 4.6 mph SW7.4 kmh SW 3.5 mph5.6 kmh 29.86 in1011.2 mb - 0.00 in0.0 mm 0.00 in0.0 mm
12:20 AM 54.5°F12.5°C 48.1°F8.9°C 79% 2.3 mph S3.7 kmh S 6.9 mph11.1 kmh 29.86 in1011.2 mb - 0.00 in0.0 mm 0.00 in0.0 mm
12:15 AM 54.5°F12.5°C 48.1°F8.9°C 79% 2.3 mph WSW3.7 kmh WSW 3.5 mph5.6 kmh 29.86 in1011.2 mb - 0.00 in0.0 mm 0.00 in0.0 mm
12:10 AM 54.6°F12.6°C 48.2°F9.0°C 79% 3.5 mph WSW5.6 kmh WSW 4.6 mph7.4 kmh 29.86 in1011.2 mb - 0.00 in0.0 mm 0.00 in0.0 mm
12:05 AM 54.6°F12.6°C 48.2°F9.0°C 79% 4.6 mph WSW7.4 kmh WSW 10.4 mph16.7 kmh 29.86 in1011.2 mb - 0.00 in0.0 mm 0.00 in0.0 mm
12:00 AM 54.6°F12.6°C 48.2°F9.0°C 79% 4.6 mph W7.4 kmh W 6.9 mph11.1 kmh 29.86 in1011.2 mb - 0.00 in0.0 mm 0.00 in0.0 mm